Time;durP1;ratioP1;P1;durP2;ratioP2;P2;SDS_P1;SDS_P2;PMS_P1;PMS_P2;Temp;Humidity;BMP_temperature;BMP_pressure;BME280_temperature;BME280_humidity;BME280_pressure;Samples;Min_cycle;Max_cycle;Signal;HPM_P1;HPM_P2
2022/05/14 00:00:18;;;;;;;5.80;4.20;;;19.70;99.10;;;;;;6278650;22;20437;-73
2022/05/14 00:02:45;;;;;;;6.88;4.40;;;19.70;99.00;;;;;;6306629;22;19999;-76
2022/05/14 00:05:12;;;;;;;5.07;3.97;;;19.70;99.00;;;;;;6305404;22;19999;-76
2022/05/14 00:07:40;;;;;;;6.68;3.72;;;19.70;99.00;;;;;;6305684;22;20003;-75
2022/05/14 00:10:07;;;;;;;4.45;3.85;;;19.70;99.00;;;;;;6307119;22;20015;-76
2022/05/14 00:15:20;;;;;;;4.70;4.03;;;19.70;99.00;;;;;;6283725;22;20076;-76
2022/05/14 00:17:47;;;;;;;5.53;3.78;;;19.80;98.90;;;;;;6280043;22;20026;-75
2022/05/14 00:20:15;;;;;;;8.02;4.70;;;19.80;98.90;;;;;;6307149;22;20014;-76
2022/05/14 00:22:42;;;;;;;6.68;4.32;;;19.80;98.90;;;;;;6306991;22;20069;-76
2022/05/14 00:25:10;;;;;;;4.78;3.65;;;19.80;98.80;;;;;;6307419;22;20014;-76
2022/05/14 00:27:42;;;;;;;5.10;3.92;;;19.80;98.80;;;;;;6253705;22;20083;-76
2022/05/14 00:30:10;;;;;;;5.28;3.63;;;19.80;98.70;;;;;;6306483;22;20053;-76
2022/05/14 00:32:37;;;;;;;3.95;3.15;;;19.80;98.80;;;;;;6306610;22;20029;-76
2022/05/14 00:35:05;;;;;;;6.35;3.03;;;19.80;98.70;;;;;;6306507;22;20027;-76
2022/05/14 00:37:32;;;;;;;6.45;3.85;;;19.90;98.60;;;;;;6302505;22;20003;-76
2022/05/14 00:39:59;;;;;;;6.18;3.95;;;19.90;98.60;;;;;;6279076;22;20003;-76
2022/05/14 00:42:27;;;;;;;4.30;3.03;;;20.00;98.60;;;;;;6306962;22;20033;-76
2022/05/14 00:44:54;;;;;;;4.07;3.00;;;20.00;98.60;;;;;;6278652;22;20492;-76
2022/05/14 00:47:21;;;;;;;8.15;3.75;;;20.00;98.50;;;;;;6304404;22;20077;-76
2022/05/14 00:49:48;;;;;;;4.63;2.90;;;20.00;98.50;;;;;;6279333;22;20106;-75
2022/05/14 00:52:18;;;;;;;10.05;3.78;;;20.00;98.40;;;;;;6279431;22;19999;-75
2022/05/14 00:55:07;;;;;;;4.97;2.60;;;20.10;98.40;;;;;;6279497;22;19996;-76
2022/05/14 00:57:36;;;;;;;4.22;2.78;;;20.10;98.40;;;;;;6305322;22;20436;-74
2022/05/14 01:00:07;;;;;;;3.58;2.67;;;20.20;98.30;;;;;;6281590;22;20410;-80
2022/05/14 01:02:34;;;;;;;7.70;2.90;;;20.10;98.00;;;;;;6280694;22;20000;-80
2022/05/14 01:05:02;;;;;;;3.58;2.75;;;20.20;97.90;;;;;;6280746;22;20082;-80
2022/05/14 01:07:29;;;;;;;4.05;2.90;;;20.20;97.70;;;;;;6279708;22;20023;-80
2022/05/14 01:10:01;;;;;;;3.05;2.63;;;20.20;97.80;;;;;;6279569;22;20012;-80
2022/05/14 01:12:29;;;;;;;3.88;2.70;;;20.20;97.90;;;;;;6308230;22;20043;-79
2022/05/14 01:15:06;;;;;;;5.13;2.67;;;20.30;97.70;;;;;;6280307;22;19999;-79
2022/05/14 01:17:33;;;;;;;4.00;2.78;;;20.30;97.70;;;;;;6305082;22;20006;-81
2022/05/14 01:20:00;;;;;;;4.07;2.78;;;20.30;97.60;;;;;;6278253;22;20442;-80
2022/05/14 01:22:58;;;;;;;4.13;2.47;;;20.30;97.70;;;;;;6304552;22;20465;-81
2022/05/14 01:28:20;;;;;;;5.53;2.47;;;20.30;97.70;;;;;;6306408;22;20014;-80
2022/05/14 01:30:56;;;;;;;4.03;2.40;;;20.30;97.80;;;;;;6277185;22;20426;-81
2022/05/14 01:33:23;;;;;;;4.40;2.50;;;20.40;97.70;;;;;;6304986;22;20382;-80
2022/05/14 01:35:50;;;;;;;4.20;2.70;;;20.40;97.80;;;;;;6278649;22;20003;-81
2022/05/14 01:38:18;;;;;;;5.93;2.70;;;20.40;97.60;;;;;;6307018;22;20256;-81
2022/05/14 01:40:46;;;;;;;4.90;2.95;;;20.50;97.70;;;;;;6303252;22;20075;-82
2022/05/14 01:43:13;;;;;;;8.23;2.85;;;20.50;97.70;;;;;;6305770;22;20426;-81
2022/05/14 01:45:40;;;;;;;4.50;2.78;;;20.50;97.70;;;;;;6278550;22;20074;-82
2022/05/14 01:48:08;;;;;;;6.63;3.10;;;20.60;97.70;;;;;;6251413;22;20014;-81
2022/05/14 01:50:35;;;;;;;5.28;2.80;;;20.60;97.70;;;;;;6304410;22;20014;-81
2022/05/14 01:53:02;;;;;;;5.90;2.92;;;20.60;97.60;;;;;;6278563;22;20002;-81
2022/05/14 01:55:29;;;;;;;5.72;2.70;;;20.70;97.60;;;;;;6305154;22;20022;-81
2022/05/14 01:57:57;;;;;;;6.85;2.85;;;20.80;97.50;;;;;;6303800;22;20007;-81
2022/05/14 02:00:24;;;;;;;9.27;3.28;;;20.70;97.30;;;;;;6305134;22;20025;-81
2022/05/14 02:02:51;;;;;;;3.83;2.30;;;20.80;97.30;;;;;;6306380;22;19995;-80
2022/05/14 02:05:19;;;;;;;6.07;2.72;;;20.80;97.40;;;;;;6252416;22;20094;-80
2022/05/14 02:07:46;;;;;;;6.78;3.00;;;20.80;97.00;;;;;;6277748;22;20495;-80
2022/05/14 02:10:13;;;;;;;7.13;2.83;;;20.80;97.00;;;;;;6305527;22;20053;-80
2022/05/14 02:12:40;;;;;;;6.40;2.92;;;20.90;97.20;;;;;;6278600;22;20484;-80
2022/05/14 02:15:08;;;;;;;8.50;2.75;;;20.90;97.20;;;;;;6252347;22;20003;-80
2022/05/14 02:17:35;;;;;;;6.72;2.88;;;20.90;97.20;;;;;;6305599;22;20050;-80
2022/05/14 02:20:04;;;;;;;7.25;3.13;;;21.00;97.10;;;;;;6305419;22;20004;-79
2022/05/14 02:22:31;;;;;;;14.32;4.10;;;21.00;96.80;;;;;;6278451;22;20011;-79
2022/05/14 02:24:58;;;;;;;11.65;4.07;;;21.00;96.60;;;;;;6305554;22;20338;-79
2022/05/14 02:27:25;;;;;;;16.35;4.40;;;21.10;96.60;;;;;;6306539;22;20440;-79
2022/05/14 02:29:55;;;;;;;11.57;3.47;;;21.10;96.90;;;;;;6280146;22;20476;-80
2022/05/14 02:32:25;;;;;;;9.55;3.25;;;21.10;96.90;;;;;;6281341;22;19999;-79
2022/05/14 02:34:53;;;;;;;18.67;3.90;;;21.00;96.90;;;;;;6254825;22;20004;-79
2022/05/14 02:37:23;;;;;;;10.88;3.20;;;21.00;96.80;;;;;;6254698;22;20022;-79
2022/05/14 02:39:50;;;;;;;14.60;4.25;;;21.00;97.00;;;;;;6280596;22;20005;-78
2022/05/14 02:42:17;;;;;;;12.98;3.95;;;21.00;97.00;;;;;;6306082;22;19995;-78
2022/05/14 02:44:45;;;;;;;10.70;4.03;;;21.00;96.70;;;;;;6279512;22;20011;-79
2022/05/14 02:47:12;;;;;;;9.73;3.90;;;21.00;96.40;;;;;;6254502;22;20029;-78
2022/05/14 02:49:39;;;;;;;13.98;4.43;;;21.10;96.40;;;;;;6280576;22;20008;-78
2022/05/14 02:52:07;;;;;;;14.05;4.25;;;21.10;96.50;;;;;;6278153;22;19999;-78
2022/05/14 02:54:35;;;;;;;8.73;3.70;;;21.10;96.80;;;;;;6306602;22;19999;-78
2022/05/14 02:57:02;;;;;;;13.88;4.15;;;21.10;96.80;;;;;;6279703;22;20038;-78
2022/05/14 02:59:29;;;;;;;12.98;3.88;;;21.10;96.70;;;;;;6279846;22;20000;-78
2022/05/14 03:01:56;;;;;;;10.48;3.88;;;21.10;96.50;;;;;;6279555;22;19999;-77
2022/05/14 03:04:26;;;;;;;9.10;4.03;;;21.10;96.60;;;;;;6279820;22;20004;-78
2022/05/14 03:06:54;;;;;;;8.63;4.10;;;21.20;96.60;;;;;;6280171;22;19996;-78
2022/05/14 03:09:22;;;;;;;17.33;5.03;;;21.20;96.60;;;;;;6279769;22;20380;-78
2022/05/14 03:11:49;;;;;;;11.70;4.47;;;21.20;96.60;;;;;;6305567;22;20082;-78
2022/05/14 03:14:16;;;;;;;16.65;4.85;;;21.20;96.70;;;;;;6305570;22;20082;-77
2022/05/14 03:16:45;;;;;;;13.55;4.65;;;21.20;96.80;;;;;;6253394;22;20086;-77
2022/05/14 03:19:12;;;;;;;19.23;3.78;;;21.20;96.80;;;;;;6279554;22;19999;-78
2022/05/14 03:21:39;;;;;;;11.73;4.30;;;21.20;96.80;;;;;;6279585;22;20027;-78
2022/05/14 03:24:07;;;;;;;11.80;4.13;;;21.20;96.90;;;;;;6279458;22;20015;-78
2022/05/14 03:26:34;;;;;;;10.82;4.75;;;21.30;96.90;;;;;;6305430;22;20002;-78
2022/05/14 03:29:04;;;;;;;14.57;4.30;;;21.20;96.80;;;;;;6280250;22;20036;-78
2022/05/14 03:31:32;;;;;;;7.90;4.18;;;21.20;96.70;;;;;;6308366;22;20077;-77
2022/05/14 03:33:59;;;;;;;11.25;4.47;;;21.20;96.70;;;;;;6307170;22;20014;-77
2022/05/14 03:36:27;;;;;;;15.50;4.78;;;21.20;96.80;;;;;;6305329;22;20010;-77
2022/05/14 03:38:54;;;;;;;15.40;5.20;;;21.20;96.70;;;;;;6307337;22;20006;-77
2022/05/14 03:41:22;;;;;;;9.85;4.43;;;21.30;96.80;;;;;;6305079;22;20022;-77
2022/05/14 03:43:49;;;;;;;16.38;5.47;;;21.30;96.80;;;;;;6306146;22;20003;-77
2022/05/14 03:46:17;;;;;;;12.18;5.40;;;21.30;96.60;;;;;;6305031;22;20010;-77
2022/05/14 03:48:44;;;;;;;11.75;5.28;;;21.30;96.50;;;;;;6278550;22;20011;-77
2022/05/14 03:51:11;;;;;;;12.38;5.68;;;21.30;96.60;;;;;;6304363;22;20386;-77
2022/05/14 03:53:40;;;;;;;22.88;7.05;;;21.30;96.60;;;;;;6305156;22;20011;-77
2022/05/14 03:56:07;;;;;;;17.50;6.80;;;21.30;96.60;;;;;;6279420;22;20330;-77
2022/05/14 03:58:34;;;;;;;12.10;7.05;;;21.30;96.50;;;;;;6307012;22;20000;-77
2022/05/14 04:01:03;;;;;;;15.38;7.20;;;21.30;96.00;;;;;;6280169;22;20010;-77
2022/05/14 04:03:30;;;;;;;17.63;7.63;;;21.40;96.30;;;;;;6253750;22;20003;-77
2022/05/14 04:05:58;;;;;;;24.88;8.88;;;21.40;96.40;;;;;;6305469;22;20474;-77
2022/05/14 04:08:26;;;;;;;22.98;8.25;;;21.40;96.30;;;;;;6280254;22;20007;-77
2022/05/14 04:10:53;;;;;;;19.67;8.93;;;21.40;96.30;;;;;;6307260;22;20065;-77
2022/05/14 04:13:21;;;;;;;18.67;9.43;;;21.30;96.00;;;;;;6280343;22;20109;-77
2022/05/14 04:15:48;;;;;;;13.75;8.20;;;21.40;96.20;;;;;;6279692;22;20049;-76
2022/05/14 04:18:20;;;;;;;14.73;7.43;;;21.30;96.10;;;;;;6305603;22;20007;-77
2022/05/14 04:20:47;;;;;;;21.08;7.75;;;21.40;96.20;;;;;;6304894;22;20144;-73
2022/05/14 04:23:14;;;;;;;18.83;9.05;;;21.40;96.30;;;;;;6275756;22;20376;-72
2022/05/14 04:25:41;;;;;;;16.92;7.93;;;21.40;96.10;;;;;;6275419;22;20431;-73
2022/05/14 04:28:08;;;;;;;16.13;8.20;;;21.40;96.00;;;;;;6275611;22;20338;-72
2022/05/14 04:30:35;;;;;;;13.70;7.18;;;21.30;95.90;;;;;;6303424;22;20011;-72
2022/05/14 04:33:03;;;;;;;13.95;7.30;;;21.30;96.00;;;;;;6275361;22;19999;-72
2022/05/14 04:35:30;;;;;;;12.40;7.40;;;21.40;95.90;;;;;;6302853;22;20007;-72
2022/05/14 04:37:57;;;;;;;17.88;7.85;;;21.40;96.00;;;;;;6275483;22;20430;-72
2022/05/14 04:40:24;;;;;;;14.65;7.55;;;21.40;96.00;;;;;;6302773;22;20041;-72
2022/05/14 04:42:51;;;;;;;17.73;7.75;;;21.40;96.00;;;;;;6275461;22;20007;-73
2022/05/14 04:45:18;;;;;;;18.98;7.22;;;21.40;96.10;;;;;;6274720;22;20007;-77
2022/05/14 04:47:46;;;;;;;15.20;7.20;;;21.40;96.00;;;;;;6300491;22;19999;-72
2022/05/14 04:50:13;;;;;;;16.55;6.75;;;21.40;95.90;;;;;;6302805;22;20015;-72
2022/05/14 04:52:40;;;;;;;15.23;7.18;;;21.50;96.10;;;;;;6275322;22;20003;-73
2022/05/14 04:55:08;;;;;;;15.93;6.50;;;21.40;96.10;;;;;;6275168;22;20016;-72
2022/05/14 04:57:36;;;;;;;19.95;6.50;;;21.50;96.10;;;;;;6302343;22;20097;-73
2022/05/14 05:00:04;;;;;;;36.50;8.43;;;21.40;95.60;;;;;;6301427;22;20102;-73
2022/05/14 05:05:16;;;;;;;11.85;5.68;;;21.50;95.80;;;;;;6301913;22;20092;-74
2022/05/14 05:07:46;;;;;;;15.32;5.50;;;21.50;95.70;;;;;;6302040;22;20069;-73
2022/05/14 05:10:13;;;;;;;13.50;5.68;;;21.50;95.50;;;;;;6275255;22;20019;-72
2022/05/14 05:12:40;;;;;;;10.45;4.60;;;21.50;95.60;;;;;;6302504;22;20341;-72
2022/05/14 05:15:08;;;;;;;9.60;4.00;;;21.50;95.60;;;;;;6301120;22;20010;-73
2022/05/14 05:17:35;;;;;;;12.23;4.55;;;21.50;95.90;;;;;;6275604;22;19995;-73
2022/05/14 05:20:03;;;;;;;15.35;4.70;;;21.50;95.80;;;;;;6301176;22;20007;-73
2022/05/14 05:22:30;;;;;;;12.63;4.03;;;21.50;96.00;;;;;;6300672;22;20019;-73
2022/05/14 05:24:58;;;;;;;8.77;3.85;;;21.40;96.10;;;;;;6273791;22;20039;-74
2022/05/14 05:27:25;;;;;;;14.00;4.25;;;21.40;96.10;;;;;;6273415;22;20003;-75
2022/05/14 05:29:52;;;;;;;15.60;4.28;;;21.40;96.10;;;;;;6273222;22;20011;-75
2022/05/14 05:32:19;;;;;;;10.45;4.00;;;21.50;96.00;;;;;;6273690;22;19995;-75
2022/05/14 05:34:47;;;;;;;8.70;3.40;;;21.50;95.60;;;;;;6301106;22;20452;-76
2022/05/14 05:37:14;;;;;;;8.10;3.28;;;21.50;95.60;;;;;;6300949;22;20033;-75
2022/05/14 05:39:41;;;;;;;13.65;3.70;;;21.50;95.10;;;;;;6299004;22;20078;-73
2022/05/14 05:42:09;;;;;;;8.75;3.53;;;21.60;94.90;;;;;;6301316;22;20007;-73
2022/05/14 05:44:36;;;;;;;12.38;3.47;;;21.60;94.70;;;;;;6300972;22;20007;-73
2022/05/14 05:47:07;;;;;;;10.40;3.45;;;21.60;95.00;;;;;;6299133;22;20003;-72
2022/05/14 05:49:39;;;;;;;11.25;3.38;;;21.50;95.10;;;;;;6273793;22;20015;-73
2022/05/14 05:52:06;;;;;;;10.23;3.30;;;21.50;95.00;;;;;;6300677;22;20433;-72
2022/05/14 05:57:19;;;;;;;10.70;4.20;;;21.50;95.10;;;;;;6299378;22;20045;-72
2022/05/14 05:59:47;;;;;;;6.78;3.45;;;21.50;95.20;;;;;;6298963;22;20003;-72
2022/05/14 06:02:14;;;;;;;5.82;2.80;;;21.50;94.90;;;;;;6298295;22;20007;-72
2022/05/14 06:04:41;;;;;;;8.80;2.88;;;21.50;95.10;;;;;;6300375;22;20381;-71
2022/05/14 06:07:09;;;;;;;6.45;3.22;;;21.50;94.90;;;;;;6298453;22;20007;-71
2022/05/14 06:09:36;;;;;;;13.88;4.00;;;21.50;94.80;;;;;;6300195;22;20099;-70
2022/05/14 06:12:04;;;;;;;10.85;3.47;;;21.50;94.40;;;;;;6297598;22;20430;-72
2022/05/14 06:14:31;;;;;;;10.30;3.40;;;21.50;94.20;;;;;;6300282;22;20007;-72
2022/05/14 06:16:58;;;;;;;6.53;3.53;;;21.50;94.10;;;;;;6300428;22;20003;-72
2022/05/14 06:19:25;;;;;;;7.35;3.15;;;21.40;93.90;;;;;;6300923;22;20007;-71
2022/05/14 06:21:53;;;;;;;6.07;3.42;;;21.50;94.00;;;;;;6153196;22;3333310;-71
2022/05/14 06:24:20;;;;;;;6.47;3.22;;;21.50;94.20;;;;;;6299950;22;20007;-72
2022/05/14 06:29:16;;;;;;;7.90;3.15;;;21.40;94.60;;;;;;6300059;22;20030;-66
2022/05/14 06:31:43;;;;;;;8.77;3.72;;;21.40;94.70;;;;;;6248680;22;20457;-67
2022/05/14 06:34:11;;;;;;;9.45;3.63;;;21.40;94.60;;;;;;6274295;22;20440;-66
2022/05/14 06:36:39;;;;;;;8.35;3.45;;;21.30;94.90;;;;;;6301231;22;20482;-67
2022/05/14 06:39:06;;;;;;;9.38;3.40;;;21.30;95.10;;;;;;6273825;22;20011;-66
2022/05/14 06:41:33;;;;;;;8.38;3.50;;;21.30;95.10;;;;;;6301586;22;20030;-66
2022/05/14 06:44:00;;;;;;;7.55;3.50;;;21.30;95.10;;;;;;6301571;22;20451;-67
2022/05/14 06:46:28;;;;;;;6.70;3.28;;;21.30;95.20;;;;;;6301596;22;19999;-67
2022/05/14 06:48:55;;;;;;;8.50;3.50;;;21.30;95.30;;;;;;6300003;22;20443;-66
2022/05/14 06:51:24;;;;;;;11.23;3.60;;;21.30;95.20;;;;;;6301223;22;19999;-67
2022/05/14 06:53:52;;;;;;;5.93;3.25;;;21.20;95.30;;;;;;6249324;22;20015;-67
2022/05/14 06:56:19;;;;;;;9.18;3.60;;;21.20;95.40;;;;;;6273627;22;20303;-65
2022/05/14 06:58:48;;;;;;;8.52;4.03;;;21.20;95.40;;;;;;6274314;22;20000;-66
2022/05/14 07:01:16;;;;;;;6.85;3.60;;;21.20;95.50;;;;;;6274657;22;20003;-64
2022/05/14 07:06:37;;;;;;;16.02;3.50;;;21.20;95.50;;;;;;6300463;22;20026;-66
2022/05/14 07:09:06;;;;;;;9.48;3.40;;;21.20;95.60;;;;;;6299122;22;20026;-65
2022/05/14 07:11:37;;;;;;;10.55;3.60;;;21.10;95.70;;;;;;6300850;22;19999;-64
2022/05/14 07:14:05;;;;;;;15.50;3.70;;;21.10;95.70;;;;;;6302179;22;20018;-64
2022/05/14 07:16:32;;;;;;;11.00;3.50;;;21.10;95.70;;;;;;6302831;22;20511;-65
2022/05/14 07:18:59;;;;;;;8.70;3.28;;;21.10;95.60;;;;;;6275651;22;20002;-65
2022/05/14 07:21:27;;;;;;;7.43;3.10;;;21.10;95.70;;;;;;6302924;22;20086;-64
2022/05/14 07:23:54;;;;;;;10.63;3.30;;;21.00;95.70;;;;;;6302546;22;19999;-64
2022/05/14 07:26:21;;;;;;;14.05;3.50;;;21.00;95.70;;;;;;6302660;22;20018;-64
2022/05/14 07:28:48;;;;;;;9.27;3.25;;;21.00;95.80;;;;;;6302437;22;20015;-65
2022/05/14 07:31:16;;;;;;;13.88;4.00;;;21.00;95.80;;;;;;6302384;22;20384;-66
2022/05/14 07:33:43;;;;;;;9.50;2.90;;;21.00;95.80;;;;;;6302164;22;20476;-66
2022/05/14 07:36:14;;;;;;;11.32;3.30;;;21.00;95.90;;;;;;6300640;22;20038;-65
2022/05/14 07:38:41;;;;;;;10.20;3.75;;;21.00;95.90;;;;;;6303337;22;20010;-66
2022/05/14 07:41:08;;;;;;;11.85;3.38;;;21.00;95.80;;;;;;6303202;22;20003;-65
2022/05/14 07:43:36;;;;;;;10.63;3.50;;;21.00;95.50;;;;;;6275752;22;20507;-64
2022/05/14 07:46:05;;;;;;;10.55;3.60;;;20.90;95.50;;;;;;6302293;22;20027;-65
2022/05/14 07:48:35;;;;;;;9.90;3.47;;;21.00;95.60;;;;;;6300050;22;20003;-63
2022/05/14 07:51:04;;;;;;;13.15;3.35;;;20.90;95.60;;;;;;6274765;22;20003;-67
2022/05/14 07:53:31;;;;;;;12.52;3.17;;;21.00;95.50;;;;;;6302558;22;19999;-67
2022/05/14 07:56:02;;;;;;;13.50;3.28;;;20.90;95.60;;;;;;6301926;22;20007;-67
2022/05/14 07:58:29;;;;;;;10.88;3.67;;;21.00;95.60;;;;;;6302155;22;19996;-66
2022/05/14 08:00:57;;;;;;;13.30;3.50;;;21.00;95.70;;;;;;6302544;22;20014;-67
2022/05/14 08:03:26;;;;;;;12.68;3.42;;;20.90;95.80;;;;;;6301469;22;20022;-66
2022/05/14 08:05:57;;;;;;;11.73;3.35;;;20.90;95.80;;;;;;6299054;22;20210;-64
2022/05/14 08:08:24;;;;;;;13.10;3.38;;;20.90;95.80;;;;;;6302308;22;20053;-65
2022/05/14 08:10:51;;;;;;;9.02;3.35;;;20.90;95.90;;;;;;6301079;22;20003;-64
2022/05/14 08:13:19;;;;;;;12.52;3.25;;;20.90;95.90;;;;;;6302523;22;20323;-64
2022/05/14 08:15:47;;;;;;;19.95;3.95;;;20.90;95.90;;;;;;6302364;22;20011;-66
2022/05/14 08:18:15;;;;;;;12.43;3.08;;;20.80;95.60;;;;;;6301033;22;20423;-64
2022/05/14 08:20:43;;;;;;;15.02;4.32;;;20.80;95.50;;;;;;6302662;22;20082;-64
2022/05/14 08:26:00;;;;;;;14.18;3.63;;;20.80;95.60;;;;;;6301397;22;20057;-66
2022/05/14 08:28:28;;;;;;;11.05;3.15;;;20.90;95.60;;;;;;6300870;22;20015;-64
2022/05/14 08:30:55;;;;;;;9.98;3.35;;;20.90;95.60;;;;;;6300609;22;20015;-65
2022/05/14 08:33:22;;;;;;;15.27;3.38;;;20.80;95.70;;;;;;6300848;22;20080;-64
2022/05/14 08:35:49;;;;;;;14.38;3.70;;;20.90;95.70;;;;;;6299847;22;20100;-65
2022/05/14 08:38:17;;;;;;;14.07;4.00;;;20.80;95.70;;;;;;6301381;22;20023;-64
2022/05/14 08:40:46;;;;;;;10.98;3.25;;;20.80;95.70;;;;;;6273933;22;20011;-65
2022/05/14 08:43:40;;;;;;;14.70;3.75;;;20.80;95.70;;;;;;6274274;22;20014;-65
2022/05/14 08:46:18;;;;;;;10.00;3.35;;;20.80;95.70;;;;;;6294557;22;20015;-67
2022/05/14 08:48:47;;;;;;;14.48;3.85;;;20.80;95.70;;;;;;6272572;22;20405;-65
2022/05/14 08:51:17;;;;;;;12.47;3.60;;;20.80;95.80;;;;;;6249586;22;20015;-66
2022/05/14 08:53:45;;;;;;;17.85;3.63;;;20.80;95.80;;;;;;6274939;22;20236;-66
2022/05/14 08:56:25;;;;;;;17.05;3.58;;;20.80;95.80;;;;;;6275518;22;20312;-66
2022/05/14 08:59:13;;;;;;;8.55;3.45;;;20.80;95.80;;;;;;6277377;22;20032;-66
2022/05/14 09:01:43;;;;;;;11.23;3.20;;;20.80;95.80;;;;;;6301346;22;20326;-65
2022/05/14 09:04:11;;;;;;;10.32;3.20;;;20.80;95.80;;;;;;6301838;22;20011;-65
2022/05/14 09:06:39;;;;;;;10.45;3.50;;;20.90;95.80;;;;;;6301838;22;20087;-66
2022/05/14 09:09:09;;;;;;;11.55;3.85;;;20.80;95.80;;;;;;6301295;22;20031;-65
2022/05/14 09:11:42;;;;;;;12.07;3.55;;;20.80;95.70;;;;;;6301741;22;20309;-65
2022/05/14 09:14:28;;;;;;;10.20;3.45;;;20.80;95.70;;;;;;6301254;22;20307;-65
2022/05/14 09:17:08;;;;;;;9.55;3.00;;;20.80;95.70;;;;;;6301713;22;20442;-65
2022/05/14 09:19:37;;;;;;;12.23;3.28;;;20.80;95.70;;;;;;6273038;22;20011;-66
2022/05/14 09:22:24;;;;;;;9.25;3.67;;;20.80;95.70;;;;;;6273373;22;20018;-66
2022/05/14 09:24:54;;;;;;;11.93;3.85;;;20.80;95.70;;;;;;6277173;22;20003;-66
2022/05/14 09:27:46;;;;;;;8.05;3.10;;;20.80;95.70;;;;;;6275516;22;20323;-66
2022/05/14 09:30:43;;;;;;;10.05;3.67;;;20.80;95.70;;;;;;6300415;22;20007;-66
2022/05/14 09:33:27;;;;;;;10.70;4.30;;;20.80;95.80;;;;;;6274745;22;20031;-65
2022/05/14 09:35:58;;;;;;;12.38;4.63;;;20.80;95.70;;;;;;6301626;22;20003;-65
2022/05/14 09:38:26;;;;;;;13.85;4.20;;;20.80;95.70;;;;;;6301211;22;20007;-65
2022/05/14 09:40:55;;;;;;;11.93;3.95;;;20.80;95.70;;;;;;6301941;22;20376;-65
2022/05/14 09:43:25;;;;;;;9.55;4.28;;;20.80;95.80;;;;;;6301862;22;20437;-65
2022/05/14 09:46:01;;;;;;;13.85;4.43;;;20.70;95.80;;;;;;6299252;22;20311;-65
2022/05/14 09:48:38;;;;;;;12.40;4.25;;;20.80;95.80;;;;;;6297853;22;20090;-67
2022/05/14 09:51:08;;;;;;;9.13;4.38;;;20.80;95.80;;;;;;6301588;22;20260;-67
2022/05/14 09:53:37;;;;;;;11.55;4.38;;;20.80;95.80;;;;;;6301081;22;19999;-66
2022/05/14 09:56:10;;;;;;;12.75;4.18;;;20.80;95.80;;;;;;6273721;22;20007;-66
2022/05/14 09:58:53;;;;;;;11.82;3.90;;;20.70;95.80;;;;;;6301459;22;20007;-65
2022/05/14 10:01:31;;;;;;;9.25;4.03;;;20.70;95.80;;;;;;6301794;22;20054;-66
2022/05/14 10:04:24;;;;;;;11.30;4.18;;;20.70;95.80;;;;;;6300182;22;20380;-66
2022/05/14 10:06:58;;;;;;;7.95;3.60;;;20.70;95.80;;;;;;6294091;22;20323;-66
2022/05/14 10:09:38;;;;;;;9.02;3.55;;;20.70;95.80;;;;;;6274716;22;20054;-66
2022/05/14 10:12:21;;;;;;;11.02;4.10;;;20.70;95.80;;;;;;6299933;22;20003;-66
2022/05/14 10:14:51;;;;;;;9.05;3.60;;;20.70;95.80;;;;;;6299637;22;20208;-66
2022/05/14 10:17:34;;;;;;;;;;;20.70;95.90;;;;;;6301994;22;20061;-67
2022/05/14 10:20:29;;;;;;;8.82;3.60;;;20.70;95.90;;;;;;6299663;22;19965;-66
2022/05/14 10:29:18;;;;;;;12.32;3.80;;;20.70;95.80;;;;;;6301277;22;20038;-67
2022/05/14 10:32:00;;;;;;;11.88;3.85;;;20.60;95.80;;;;;;6301942;22;20000;-66
2022/05/14 10:34:42;;;;;;;7.53;3.63;;;20.60;95.80;;;;;;6301250;22;19999;-65
2022/05/14 10:37:28;;;;;;;9.02;3.58;;;20.60;95.90;;;;;;6301952;22;19995;-66
2022/05/14 10:40:10;;;;;;;7.95;4.00;;;20.60;95.90;;;;;;6274339;22;20011;-66
2022/05/14 10:43:01;;;;;;;10.02;4.20;;;20.70;95.80;;;;;;6272839;22;20003;-66
2022/05/14 10:45:32;;;;;;;11.30;4.25;;;20.70;95.80;;;;;;6274080;22;20008;-65
2022/05/14 10:48:05;;;;;;;10.63;4.60;;;20.60;95.90;;;;;;6272773;22;20386;-65
2022/05/14 10:50:32;;;;;;;7.45;3.78;;;20.60;95.90;;;;;;6277035;22;20015;-64
2022/05/14 10:52:59;;;;;;;9.88;3.83;;;20.60;95.90;;;;;;6302977;22;19999;-64
2022/05/14 10:55:35;;;;;;;10.05;4.18;;;20.60;95.90;;;;;;6250127;22;20007;-65
2022/05/14 10:58:06;;;;;;;9.20;3.88;;;20.60;95.90;;;;;;6275668;22;20007;-63
2022/05/14 11:00:38;;;;;;;10.07;3.50;;;20.60;95.90;;;;;;6250425;22;20003;-64
2022/05/14 11:03:23;;;;;;;10.93;3.88;;;20.50;95.90;;;;;;6303276;22;20425;-66
2022/05/14 11:06:03;;;;;;;8.05;4.15;;;20.60;95.90;;;;;;6277712;22;20003;-66
2022/05/14 11:08:41;;;;;;;12.63;4.30;;;20.50;95.90;;;;;;6302796;22;20041;-65
2022/05/14 11:11:29;;;;;;;9.15;4.15;;;20.50;95.90;;;;;;6277670;22;20007;-66
2022/05/14 11:14:06;;;;;;;6.70;3.72;;;20.50;96.00;;;;;;6276052;22;20383;-66
2022/05/14 11:16:50;;;;;;;9.82;4.22;;;20.50;96.00;;;;;;6303149;22;20062;-64
2022/05/14 11:19:28;;;;;;;7.38;4.47;;;20.50;96.00;;;;;;6303005;22;20436;-66
2022/05/14 11:21:56;;;;;;;9.23;3.80;;;20.40;96.00;;;;;;6275456;22;20008;-67
2022/05/14 11:24:52;;;;;;;6.47;3.97;;;20.40;95.90;;;;;;6302869;22;20486;-66
2022/05/14 11:27:33;;;;;;;11.35;4.57;;;20.40;96.00;;;;;;6250974;22;20018;-66
2022/05/14 11:30:09;;;;;;;10.15;4.55;;;20.40;96.10;;;;;;6282005;22;20341;-66
2022/05/14 11:32:48;;;;;;;13.30;4.68;;;20.50;96.20;;;;;;6333468;22;19999;-65
2022/05/14 11:35:15;;;;;;;6.88;4.05;;;20.40;96.10;;;;;;6281143;22;20007;-65
2022/05/14 11:37:45;;;;;;;10.68;4.60;;;20.40;96.00;;;;;;6333572;22;20048;-67
2022/05/14 11:40:22;;;;;;;10.40;4.57;;;20.40;96.00;;;;;;6306075;22;20003;-66
2022/05/14 11:42:53;;;;;;;12.73;5.15;;;20.40;96.00;;;;;;6334073;22;20429;-66
2022/05/14 11:45:24;;;;;;;11.98;4.70;;;20.40;96.00;;;;;;6334415;22;20064;-66
2022/05/14 11:48:37;;;;;;;11.43;4.68;;;20.40;96.00;;;;;;6332065;22;20378;-66
2022/05/14 11:51:15;;;;;;;13.63;4.40;;;20.30;95.90;;;;;;6177559;23;20513;-67
2022/05/14 11:53:46;;;;;;;13.63;4.65;;;20.40;95.90;;;;;;6178287;23;20563;-66
2022/05/14 11:56:21;;;;;;;10.18;4.32;;;20.30;96.00;;;;;;6271585;22;20089;-66
2022/05/14 11:58:58;;;;;;;9.65;4.13;;;20.40;96.10;;;;;;6308189;22;20013;-66
2022/05/14 12:01:27;;;;;;;8.43;4.47;;;20.30;96.10;;;;;;6284632;22;19999;-65
2022/05/14 12:03:54;;;;;;;8.07;4.07;;;20.30;96.00;;;;;;6284868;22;20002;-66
2022/05/14 12:06:33;;;;;;;8.68;4.30;;;20.30;96.00;;;;;;6285334;22;20052;-66
2022/05/14 12:09:04;;;;;;;7.75;4.85;;;20.30;96.10;;;;;;6310088;22;20287;-66
2022/05/14 12:12:05;;;;;;;12.48;4.82;;;20.30;96.10;;;;;;6337641;22;20045;-66
2022/05/14 12:14:34;;;;;;;7.47;4.15;;;20.30;96.00;;;;;;6284705;22;20060;-66
2022/05/14 12:17:02;;;;;;;9.30;4.32;;;20.30;96.10;;;;;;6310904;22;20003;-66
2022/05/14 12:19:54;;;;;;;10.02;4.40;;;20.30;96.10;;;;;;6284576;22;20364;-66
2022/05/14 12:22:25;;;;;;;7.25;4.28;;;20.30;96.10;;;;;;6316850;22;20011;-65
2022/05/14 12:25:05;;;;;;;8.65;4.40;;;20.30;96.10;;;;;;6310663;22;20299;-66
2022/05/14 12:27:33;;;;;;;7.82;3.92;;;20.30;96.10;;;;;;6328297;22;20355;-66
2022/05/14 12:33:18;;;;;;;8.57;4.43;;;20.20;96.00;;;;;;6247242;22;20003;-66
2022/05/14 12:35:56;;;;;;;9.77;4.60;;;20.20;95.90;;;;;;6279112;22;20003;-66
2022/05/14 12:38:41;;;;;;;10.80;4.60;;;20.10;96.00;;;;;;6305880;22;20345;-66
2022/05/14 12:41:17;;;;;;;8.98;4.18;;;20.20;96.00;;;;;;6279930;22;20027;-66
2022/05/14 12:43:44;;;;;;;7.85;4.43;;;20.10;96.10;;;;;;6279463;22;20421;-65
2022/05/14 12:46:11;;;;;;;9.85;4.45;;;20.10;96.20;;;;;;6278735;22;20010;-66
2022/05/14 12:48:47;;;;;;;8.80;4.30;;;20.20;96.30;;;;;;6279046;22;20421;-66
2022/05/14 12:51:19;;;;;;;8.48;4.63;;;20.20;96.30;;;;;;6279579;22;20433;-66
2022/05/14 12:53:46;;;;;;;10.43;4.70;;;20.20;96.40;;;;;;6306080;22;20002;-66
2022/05/14 12:56:14;;;;;;;10.52;4.68;;;20.20;96.30;;;;;;6278805;22;20444;-66
2022/05/14 12:58:41;;;;;;;10.90;4.45;;;20.10;96.20;;;;;;6253650;22;20003;-66
2022/05/14 13:01:09;;;;;;;10.10;4.55;;;20.10;96.20;;;;;;6278035;22;20010;-66
2022/05/14 13:03:59;;;;;;;9.23;4.32;;;20.10;96.30;;;;;;6278645;22;20007;-66
2022/05/14 13:06:28;;;;;;;8.85;3.95;;;20.10;96.30;;;;;;6257607;22;20004;-65
2022/05/14 13:08:57;;;;;;;8.17;4.50;;;20.10;96.30;;;;;;6278881;22;20078;-66
2022/05/14 13:11:28;;;;;;;9.80;4.45;;;20.10;96.20;;;;;;6305633;22;20007;-66
2022/05/14 13:13:59;;;;;;;8.23;4.13;;;20.10;96.20;;;;;;6278781;22;20048;-66
2022/05/14 13:16:31;;;;;;;12.48;4.53;;;20.10;96.20;;;;;;6305698;22;20004;-66
2022/05/14 13:19:01;;;;;;;9.43;5.50;;;20.00;96.20;;;;;;6254339;22;20385;-66
2022/05/14 13:21:35;;;;;;;9.50;5.40;;;20.00;96.20;;;;;;6254128;22;20034;-66
2022/05/14 13:24:19;;;;;;;11.25;4.50;;;20.00;96.20;;;;;;6252502;22;20440;-66
2022/05/14 13:26:47;;;;;;;10.75;4.80;;;19.90;96.20;;;;;;6281846;22;20079;-66